createdAt,value
2023-01-15T00:04:12.230Z,76.64
2023-01-15T00:09:15.565Z,77.23
2023-01-15T00:14:17.129Z,76.66
2023-01-15T00:19:18.759Z,75.73
2023-01-15T00:24:55.762Z,75.81
2023-01-15T00:29:57.375Z,75.44
2023-01-15T00:34:59.529Z,74.97
2023-01-15T00:40:01.128Z,75.78
2023-01-15T00:45:09.935Z,75.56
2023-01-15T00:50:14.180Z,74.42
2023-01-15T00:55:15.798Z,75.25
2023-01-15T01:00:17.686Z,75.75
2023-01-15T01:05:19.302Z,75.93
2023-01-15T01:10:20.961Z,76.18
2023-01-15T01:15:23.313Z,75.75
2023-01-15T01:20:24.965Z,76.47
2023-01-15T01:25:26.610Z,77.42
2023-01-15T01:30:28.230Z,76.06
2023-01-15T01:35:29.855Z,77.67
2023-01-15T01:40:31.430Z,77.38
2023-01-15T01:45:33.560Z,76.42
2023-01-15T01:50:35.686Z,76.63
2023-01-15T01:55:37.976Z,76.84
2023-01-15T02:00:42.370Z,76.59
2023-01-15T02:05:47.783Z,76.11
2023-01-15T02:10:53.106Z,76.92
2023-01-15T02:16:22.229Z,76.13
2023-01-15T02:21:42.176Z,77.15
2023-01-15T02:27:06.041Z,76.88
2023-01-15T02:32:14.133Z,76.70
2023-01-15T02:37:22.841Z,76.84
2023-01-15T02:42:26.995Z,77.11
2023-01-15T02:47:32.869Z,76.84
2023-01-15T02:52:37.713Z,76.96
2023-01-15T02:57:41.707Z,77.87
2023-01-15T03:02:49.562Z,77.43
2023-01-15T03:07:53.645Z,78.39
2023-01-15T03:13:04.377Z,79.00
2023-01-15T03:18:46.029Z,79.34
2023-01-15T03:23:51.659Z,79.24
2023-01-15T03:28:53.655Z,78.95
2023-01-15T03:33:55.257Z,79.46
2023-01-15T03:38:58.595Z,78.71
2023-01-15T03:44:27.903Z,79.90
2023-01-15T03:49:58.012Z,79.67
2023-01-15T03:55:26.201Z,79.07
2023-01-15T04:00:38.732Z,79.55
2023-01-15T04:05:41.850Z,78.89
2023-01-15T04:10:56.896Z,78.78
2023-01-15T04:16:02.112Z,78.93
2023-01-15T04:21:05.515Z,79.01
2023-01-15T04:26:09.216Z,79.51
2023-01-15T04:31:10.839Z,79.45
2023-01-15T04:36:14.434Z,80.48
2023-01-15T04:41:34.410Z,80.31
2023-01-15T04:46:43.002Z,80.66
2023-01-15T04:51:45.065Z,80.96
2023-01-15T04:56:48.210Z,81.23
2023-01-15T05:02:02.506Z,80.32
2023-01-15T05:07:05.484Z,80.89
2023-01-15T05:12:07.114Z,81.00
2023-01-15T05:17:08.644Z,80.96
2023-01-15T05:22:10.375Z,81.37
2023-01-15T05:27:11.961Z,81.28
2023-01-15T05:32:13.743Z,82.23
2023-01-15T05:37:15.425Z,81.29
2023-01-15T05:42:17.000Z,80.86
2023-01-15T05:47:18.680Z,81.61
2023-01-15T05:52:21.450Z,81.29
2023-01-15T05:57:23.004Z,80.60
2023-01-15T06:02:24.733Z,81.99
2023-01-15T06:07:26.385Z,82.70
2023-01-15T06:12:28.030Z,80.92
2023-01-15T06:17:29.613Z,81.10
2023-01-15T06:22:31.188Z,81.01
2023-01-15T06:27:32.861Z,80.90
2023-01-15T06:32:34.476Z,80.54
2023-01-15T06:37:36.044Z,79.68
2023-01-15T06:42:56.244Z,85.66
2023-01-15T06:47:58.224Z,87.21
2023-01-15T06:52:59.782Z,89.02
2023-01-15T06:58:03.880Z,86.87
2023-01-15T07:03:05.800Z,85.61
2023-01-15T07:08:07.391Z,85.76
2023-01-15T07:13:12.121Z,86.79
2023-01-15T07:18:13.692Z,87.42
2023-01-15T07:23:16.776Z,86.58
2023-01-15T07:28:18.465Z,85.86
2023-01-15T07:33:20.067Z,89.08
2023-01-15T07:38:21.640Z,88.26
2023-01-15T07:43:42.283Z,87.85
2023-01-15T07:49:02.551Z,88.06
2023-01-15T07:54:04.157Z,87.41
2023-01-15T07:59:05.720Z,87.07
2023-01-15T08:04:07.338Z,87.86
2023-01-15T08:09:08.977Z,86.12
2023-01-15T08:14:29.147Z,85.31
2023-01-15T08:19:30.852Z,85.78
2023-01-15T08:24:32.482Z,86.10
2023-01-15T08:29:34.074Z,85.16
2023-01-15T08:34:35.658Z,84.83
2023-01-15T08:39:37.299Z,84.13
2023-01-15T08:44:38.885Z,85.19
2023-01-15T08:49:40.416Z,84.32
2023-01-15T08:54:42.351Z,85.06
2023-01-15T08:59:43.983Z,85.07
2023-01-15T09:04:45.638Z,84.89
2023-01-15T09:09:47.249Z,85.44
2023-01-15T09:14:58.772Z,86.12
2023-01-15T09:20:04.711Z,85.19
2023-01-15T09:25:06.964Z,84.84
2023-01-15T09:30:11.258Z,85.87
2023-01-15T09:35:12.823Z,85.98
2023-01-15T09:40:53.026Z,86.19
2023-01-15T09:46:02.073Z,86.92
2023-01-15T09:51:22.749Z,87.59
2023-01-15T09:56:29.740Z,86.53
2023-01-15T10:01:33.178Z,87.71
2023-01-15T10:06:41.013Z,88.32
2023-01-15T10:12:04.869Z,86.49
2023-01-15T10:17:34.952Z,84.93
2023-01-15T10:22:46.880Z,84.97
2023-01-15T10:27:51.611Z,84.71
2023-01-15T10:33:02.416Z,84.59
2023-01-15T10:38:22.666Z,83.67
2023-01-15T10:43:44.795Z,83.09
2023-01-15T10:48:50.001Z,81.84
2023-01-15T10:53:53.858Z,82.32
2023-01-15T10:59:05.116Z,80.03
2023-01-15T11:04:15.884Z,78.20
2023-01-15T11:09:23.336Z,77.07
2023-01-15T11:15:01.930Z,75.15
2023-01-15T11:20:12.346Z,75.22
2023-01-15T11:25:14.227Z,73.85
2023-01-15T11:30:28.372Z,72.81
2023-01-15T11:35:30.937Z,74.53
2023-01-15T11:40:33.050Z,74.24
2023-01-15T11:45:53.318Z,74.55
2023-01-15T11:51:00.331Z,74.68
2023-01-15T11:56:06.561Z,75.99
2023-01-15T12:01:08.247Z,74.32
2023-01-15T12:06:11.956Z,74.25
2023-01-15T12:11:39.255Z,74.07
2023-01-15T12:16:49.376Z,74.55
2023-01-15T12:22:09.569Z,75.05
2023-01-15T12:27:52.267Z,73.70
2023-01-15T12:33:17.363Z,74.13
2023-01-15T12:38:32.453Z,72.21
2023-01-15T12:43:52.530Z,71.92
2023-01-15T12:49:03.380Z,73.74
2023-01-15T12:54:12.538Z,72.53
2023-01-15T12:59:25.422Z,71.26
2023-01-15T13:04:58.172Z,71.44
2023-01-15T13:10:19.984Z,71.21
2023-01-15T13:15:26.300Z,70.61
2023-01-15T13:20:53.972Z,69.47
2023-01-15T13:26:01.474Z,69.83
2023-01-15T13:31:13.606Z,70.03
2023-01-15T13:36:20.341Z,68.84
2023-01-15T13:41:44.249Z,68.94
2023-01-15T13:46:47.466Z,69.04
2023-01-15T13:51:49.552Z,68.69
2023-01-15T13:56:51.146Z,67.68
2023-01-15T14:01:52.893Z,66.27
2023-01-15T14:06:54.641Z,66.53
2023-01-15T14:11:59.251Z,66.97
2023-01-15T14:17:09.605Z,66.19
2023-01-15T14:22:17.111Z,66.35
2023-01-15T14:27:31.975Z,66.26
2023-01-15T14:32:53.757Z,64.89
2023-01-15T14:38:00.636Z,65.70
2023-01-15T14:43:10.257Z,65.69
2023-01-15T14:48:30.349Z,65.95
2023-01-15T14:53:50.168Z,66.24
2023-01-15T14:59:08.697Z,66.23
2023-01-15T15:04:45.038Z,66.83
2023-01-15T15:09:52.328Z,67.08
2023-01-15T15:15:08.105Z,67.06
2023-01-15T15:20:21.624Z,66.68
2023-01-15T15:25:26.027Z,66.07
2023-01-15T15:30:28.222Z,65.42
2023-01-15T15:35:31.158Z,64.79
2023-01-15T15:40:34.802Z,64.35
2023-01-15T15:45:55.204Z,64.31
2023-01-15T15:50:56.860Z,63.37
2023-01-15T15:55:59.765Z,64.81
2023-01-15T16:01:01.935Z,64.67
2023-01-15T16:06:06.737Z,63.27
2023-01-15T16:11:11.449Z,63.63
2023-01-15T16:16:13.701Z,62.68
2023-01-15T16:21:30.548Z,63.55
2023-01-15T16:26:38.455Z,64.05
2023-01-15T16:31:40.039Z,63.07
2023-01-15T16:36:45.326Z,63.15
2023-01-15T16:41:47.013Z,64.60
2023-01-15T16:46:57.074Z,65.01
2023-01-15T16:52:00.869Z,63.90
2023-01-15T16:57:28.544Z,65.56
2023-01-15T17:02:35.488Z,63.43
2023-01-15T17:07:38.817Z,63.41
2023-01-15T17:12:42.579Z,64.67
2023-01-15T17:17:49.045Z,64.35
2023-01-15T17:22:51.068Z,64.05
2023-01-15T17:27:56.033Z,64.07
2023-01-15T17:33:01.773Z,63.84
2023-01-15T17:38:04.815Z,63.23
2023-01-15T17:43:07.610Z,63.30
2023-01-15T17:48:09.456Z,63.09
2023-01-15T17:53:11.140Z,62.04
2023-01-15T17:58:32.370Z,61.79
2023-01-15T18:03:53.982Z,63.10
2023-01-15T18:08:57.864Z,62.69
2023-01-15T18:13:59.533Z,61.97
2023-01-15T18:19:01.130Z,62.79
2023-01-15T18:24:04.279Z,63.08
2023-01-15T18:29:07.165Z,62.64
2023-01-15T18:34:09.054Z,62.48
2023-01-15T18:39:12.989Z,61.97
2023-01-15T18:44:38.275Z,62.83
2023-01-15T18:49:44.756Z,62.86
2023-01-15T18:54:46.315Z,63.03
2023-01-15T18:59:48.211Z,62.32
2023-01-15T19:04:49.886Z,62.09
2023-01-15T19:09:51.621Z,62.15
2023-01-15T19:15:11.759Z,62.01
2023-01-15T19:20:15.593Z,62.01
2023-01-15T19:25:17.505Z,62.42
2023-01-15T19:30:19.875Z,62.41
2023-01-15T19:35:21.991Z,61.82
2023-01-15T19:40:24.085Z,62.25
2023-01-15T19:45:44.325Z,62.02
2023-01-15T19:50:46.876Z,61.92
2023-01-15T19:55:48.493Z,61.61
2023-01-15T20:00:50.208Z,61.78
2023-01-15T20:05:52.014Z,62.22
2023-01-15T20:10:53.853Z,62.41
2023-01-15T20:15:55.469Z,61.84
2023-01-15T20:20:57.115Z,61.84
2023-01-15T20:26:07.527Z,62.32
2023-01-15T20:31:17.366Z,62.21
2023-01-15T20:36:19.070Z,62.43
2023-01-15T20:41:39.164Z,62.32
2023-01-15T20:46:40.888Z,62.29
2023-01-15T20:51:42.485Z,62.26
2023-01-15T20:56:44.069Z,61.99
2023-01-15T21:01:45.815Z,62.19
2023-01-15T21:06:47.486Z,61.81
2023-01-15T21:11:49.281Z,62.09
2023-01-15T21:16:51.700Z,61.77
2023-01-15T21:21:53.519Z,61.80
2023-01-15T21:26:55.324Z,61.77
2023-01-15T21:31:57.216Z,61.96
2023-01-15T21:36:58.933Z,62.41
2023-01-15T21:42:18.984Z,61.99
2023-01-15T21:47:20.664Z,62.05
2023-01-15T21:52:22.284Z,61.72
2023-01-15T21:57:23.851Z,61.83
2023-01-15T22:02:25.508Z,61.53
2023-01-15T22:07:27.131Z,62.22
2023-01-15T22:12:28.732Z,61.37
2023-01-15T22:17:30.351Z,61.18
2023-01-15T22:22:35.507Z,61.68
2023-01-15T22:27:40.816Z,60.90
2023-01-15T22:32:42.757Z,61.91
2023-01-15T22:37:44.450Z,62.10
2023-01-15T22:42:46.095Z,62.44
2023-01-15T22:47:47.657Z,62.78
2023-01-15T22:52:49.258Z,63.48
2023-01-15T22:57:50.927Z,62.96
2023-01-15T23:02:55.974Z,62.66
2023-01-15T23:07:57.617Z,62.66
2023-01-15T23:12:59.199Z,63.07
2023-01-15T23:18:00.812Z,63.31
2023-01-15T23:23:02.413Z,62.12
2023-01-15T23:28:04.140Z,62.71
2023-01-15T23:33:05.759Z,62.29
2023-01-15T23:38:07.285Z,62.82
2023-01-15T23:43:28.707Z,62.24
2023-01-15T23:48:30.345Z,62.07
2023-01-15T23:53:31.929Z,62.62
2023-01-15T23:58:33.571Z,62.49
